^^
Your Local Weather - Clay, NY Station Historical Data
Daily Summary for November 4, 2017 Units:  English    Metric   Both
« Previous Day
Next Day »
Daily Weekly Monthly Yearly Custom
  High: Low: Average:
Temperature: 46.3 °F 30.9 °F 40.2 °F
Dew Point: 37.2 °F 28.6 °F 32.8 °F
Humidity: 93% 59% 76%
Wind Speed: 5.0mph 0.0mph 1.6mph
Wind Gust: 14.0mph - -
Wind- - ESE
Pressure: 30.37 in 30.16 in -
Precipitation: 0.00 in    
Historical Graphs
 
 
Tabular Data for November 4, 2017
Time Temperature Dew Point Pressure Wind Wind Speed Wind Gust Humidity Rainfall Rate (Hourly) solar
00:04 37.6 °F 34.4 °F 30.28 in Calm   1.0 mph 88% 0.00 in 0 W/m2
00:10 38.4 °F 34.9 °F 30.29 in NW 1.0 mph 1.0 mph 87% 0.00 in 0 W/m2
00:16 38.9 °F 34.8 °F 30.29 in NW 1.0 mph 3.0 mph 85% 0.00 in 0 W/m2
00:22 39.5 °F 34.5 °F 30.29 in North 2.0 mph 2.0 mph 82% 0.00 in 0 W/m2
00:28 39.9 °F 34.2 °F 30.29 in NNW 2.0 mph 3.0 mph 80% 0.00 in 0 W/m2
00:30 40.0 °F 34.0 °F 30.29 in NW 2.0 mph 5.0 mph 79% 0.00 in 0 W/m2
00:36 40.6 °F 33.6 °F 30.29 in North 3.0 mph 5.0 mph 76% 0.00 in 0 W/m2
00:42 40.7 °F 33.4 °F 30.29 in North 2.0 mph 4.0 mph 75% 0.00 in 0 W/m2
00:48 40.6 °F 33.3 °F 30.29 in North 1.0 mph 4.0 mph 75% 0.00 in 0 W/m2
00:54 40.4 °F 32.8 °F 30.30 in Calm   1.0 mph 74% 0.00 in 0 W/m2
01:00 40.1 °F 32.8 °F 30.30 in Calm   2.0 mph 75% 0.00 in 0 W/m2
01:06 39.8 °F 32.5 °F 30.30 in North 1.0 mph 2.0 mph 75% 0.00 in 0 W/m2
01:12 39.7 °F 32.4 °F 30.29 in North 1.0 mph 1.0 mph 75% 0.00 in 0 W/m2
01:18 39.5 °F 31.9 °F 30.30 in Calm   1.0 mph 74% 0.00 in 0 W/m2
01:24 39.7 °F 32.1 °F 30.30 in NE 1.0 mph 4.0 mph 74% 0.00 in 0 W/m2
01:32 39.5 °F 31.6 °F 30.30 in NNE 1.0 mph 2.0 mph 73% 0.00 in 0 W/m2
01:38 39.3 °F 31.7 °F 30.30 in Calm   1.0 mph 74% 0.00 in 0 W/m2
01:44 38.9 °F 32.0 °F 30.30 in Calm   2.0 mph 76% 0.00 in 0 W/m2
01:50 38.5 °F 31.6 °F 30.30 in NNW 1.0 mph 1.0 mph 76% 0.00 in 0 W/m2
01:56 38.2 °F 31.6 °F 30.30 in NNW 1.0 mph 1.0 mph 77% 0.00 in 0 W/m2
02:02 38.2 °F 31.6 °F 30.31 in NNW 1.0 mph 1.0 mph 77% 0.00 in 0 W/m2
02:08 38.1 °F 31.2 °F 30.31 in Calm   1.0 mph 76% 0.00 in 0 W/m2
02:14 37.9 °F 31.3 °F 30.31 in Calm     77% 0.00 in 0 W/m2
02:20 37.2 °F 31.0 °F 30.31 in Calm     78% 0.00 in 0 W/m2
02:26 36.6 °F 31.0 °F 30.31 in Calm     80% 0.00 in 0 W/m2
02:32 36.3 °F 31.3 °F 30.31 in Calm     82% 0.00 in 0 W/m2
02:38 36.0 °F 31.3 °F 30.31 in Calm     83% 0.00 in 0 W/m2
02:44 35.7 °F 31.0 °F 30.31 in Calm     83% 0.00 in 0 W/m2
02:50 35.4 °F 31.0 °F 30.31 in Calm     84% 0.00 in 0 W/m2
02:56 35.1 °F 31.0 °F 30.32 in Calm     85% 0.00 in 0 W/m2
03:02 34.8 °F 30.8 °F 30.31 in Calm     85% 0.00 in 0 W/m2
03:08 34.6 °F 30.8 °F 30.31 in Calm     86% 0.00 in 0 W/m2
03:14 34.4 °F 30.6 °F 30.32 in Calm     86% 0.00 in 0 W/m2
03:20 34.5 °F 31.0 °F 30.32 in Calm     87% 0.00 in 0 W/m2
03:26 34.3 °F 30.8 °F 30.31 in Calm     87% 0.00 in 0 W/m2
03:32 34.1 °F 30.6 °F 30.31 in Calm     87% 0.00 in 0 W/m2
03:38 33.9 °F 30.4 °F 30.32 in Calm     87% 0.00 in 0 W/m2
03:44 33.7 °F 30.5 °F 30.32 in Calm     88% 0.00 in 0 W/m2
03:50 33.5 °F 30.0 °F 30.32 in Calm     87% 0.00 in 0 W/m2
03:56 33.3 °F 30.1 °F 30.31 in Calm     88% 0.00 in 0 W/m2
04:02 33.1 °F 29.9 °F 30.31 in Calm     88% 0.00 in 0 W/m2
04:08 33.1 °F 29.9 °F 30.31 in Calm     88% 0.00 in 0 W/m2
04:14 33.1 °F 30.2 °F 30.31 in Calm     89% 0.00 in 0 W/m2
04:20 33.1 °F 30.2 °F 30.31 in Calm     89% 0.00 in 0 W/m2
04:26 33.1 °F 30.2 °F 30.31 in Calm     89% 0.00 in 0 W/m2
04:32 33.1 °F 30.2 °F 30.32 in Calm     89% 0.00 in 0 W/m2
04:38 33.1 °F 30.2 °F 30.32 in Calm     89% 0.00 in 0 W/m2
04:44 33.0 °F 30.1 °F 30.32 in Calm     89% 0.00 in 0 W/m2
04:50 32.8 °F 29.9 °F 30.32 in Calm     89% 0.00 in 0 W/m2
04:56 32.7 °F 29.8 °F 30.32 in Calm     89% 0.00 in 0 W/m2
05:02 32.6 °F 29.7 °F 30.33 in Calm     89% 0.00 in 0 W/m2
05:08 32.5 °F 29.9 °F 30.33 in Calm     90% 0.00 in 0 W/m2
05:14 32.3 °F 29.4 °F 30.32 in Calm     89% 0.00 in 0 W/m2
05:20 32.1 °F 29.2 °F 30.32 in Calm     89% 0.00 in 0 W/m2
05:26 32.0 °F 29.4 °F 30.32 in Calm     90% 0.00 in 0 W/m2
05:32 32.0 °F 29.4 °F 30.33 in Calm     90% 0.00 in 0 W/m2
05:38 31.9 °F 29.3 °F 30.33 in Calm     90% 0.00 in 0 W/m2
05:40 31.9 °F 29.3 °F 30.33 in Calm     90% 0.00 in 0 W/m2
05:46 31.7 °F 29.1 °F 30.33 in Calm     90% 0.00 in 0 W/m2
05:52 31.6 °F 29.0 °F 30.34 in Calm     90% 0.00 in 0 W/m2
05:58 31.4 °F 28.8 °F 30.34 in Calm     90% 0.00 in 0 W/m2
06:04 31.3 °F 28.7 °F 30.34 in Calm     90% 0.00 in 0 W/m2
06:10 31.2 °F 28.6 °F 30.35 in Calm     90% 0.00 in 0 W/m2
06:16 31.2 °F 28.9 °F 30.34 in Calm     91% 0.00 in 0 W/m2
06:22 31.1 °F 28.8 °F 30.35 in Calm     91% 0.00 in 0 W/m2
06:28 30.9 °F 28.6 °F 30.34 in Calm     91% 0.00 in 0 W/m2
06:34 31.0 °F 28.7 °F 30.35 in Calm     91% 0.00 in 0 W/m2
06:40 31.1 °F 28.8 °F 30.35 in Calm     91% 0.00 in 0 W/m2
06:46 31.2 °F 28.9 °F 30.34 in Calm     91% 0.00 in 0 W/m2
06:52 31.3 °F 29.0 °F 30.35 in Calm     91% 0.00 in 0 W/m2
06:58 31.4 °F 29.1 °F 30.35 in Calm     91% 0.00 in 0 W/m2
07:04 31.4 °F 29.1 °F 30.35 in Calm     91% 0.00 in 0 W/m2
07:10 31.4 °F 29.1 °F 30.35 in Calm     91% 0.00 in 0 W/m2
07:16 31.4 °F 29.1 °F 30.35 in Calm     91% 0.00 in 0 W/m2
07:22 31.4 °F 29.3 °F 30.35 in Calm     92% 0.00 in 0 W/m2
07:28 31.5 °F 29.4 °F 30.35 in Calm     92% 0.00 in 0 W/m2
07:34 31.6 °F 29.5 °F 30.35 in Calm     92% 0.00 in 0 W/m2
07:40 31.7 °F 29.6 °F 30.36 in Calm     92% 0.00 in 0 W/m2
07:46 31.8 °F 29.7 °F 30.35 in Calm     92% 0.00 in 0 W/m2
07:52 32.0 °F 29.9 °F 30.35 in Calm     92% 0.00 in 5 W/m2
07:58 32.1 °F 30.0 °F 30.35 in Calm     92% 0.00 in 11 W/m2
08:04 32.1 °F 30.0 °F 30.35 in Calm     92% 0.00 in 16 W/m2
08:10 32.1 °F 30.0 °F 30.36 in Calm     92% 0.00 in 25 W/m2
08:16 32.4 °F 30.3 °F 30.36 in Calm     92% 0.00 in 30 W/m2
08:22 32.5 °F 30.4 °F 30.36 in Calm     92% 0.00 in 33 W/m2
08:28 32.7 °F 30.6 °F 30.36 in Calm     92% 0.00 in 40 W/m2
08:34 32.9 °F 31.1 °F 30.36 in Calm     93% 0.00 in 46 W/m2
08:40 33.1 °F 31.0 °F 30.36 in Calm     92% 0.00 in 56 W/m2
08:46 33.5 °F 31.7 °F 30.36 in Calm     93% 0.00 in 65 W/m2
08:52 33.8 °F 32.0 °F 30.36 in Calm     93% 0.00 in 70 W/m2
08:58 34.1 °F 32.3 °F 30.36 in Calm     93% 0.00 in 76 W/m2
09:04 34.5 °F 32.7 °F 30.36 in Calm     93% 0.00 in 84 W/m2
09:10 35.0 °F 33.2 °F 30.37 in Calm     93% 0.00 in 93 W/m2
09:16 35.4 °F 33.6 °F 30.37 in Calm   3.0 mph 93% 0.00 in 95 W/m2
09:28 35.9 °F 34.1 °F 30.36 in NNW 1.0 mph 1.0 mph 93% 0.00 in 107 W/m2
09:34 36.2 °F 34.4 °F 30.37 in Calm     93% 0.00 in 118 W/m2
09:40 36.7 °F 34.9 °F 30.37 in Calm     93% 0.00 in 123 W/m2
09:46 37.3 °F 35.5 °F 30.37 in Calm   1.0 mph 93% 0.00 in 132 W/m2
09:52 37.7 °F 35.9 °F 30.37 in NNW 1.0 mph 1.0 mph 93% 0.00 in 118 W/m2
09:58 37.9 °F 35.8 °F 30.37 in NNW 1.0 mph 2.0 mph 92% 0.00 in 113 W/m2
10:04 38.1 °F 36.0 °F 30.37 in NNW 1.0 mph 1.0 mph 92% 0.00 in 111 W/m2
10:10 38.4 °F 36.3 °F 30.36 in Calm     92% 0.00 in 114 W/m2
10:16 38.5 °F 36.1 °F 30.36 in Calm   1.0 mph 91% 0.00 in 174 W/m2
10:22 39.5 °F 36.8 °F 30.36 in Calm     90% 0.00 in 278 W/m2
10:28 40.4 °F 35.9 °F 30.36 in NE 1.0 mph 3.0 mph 84% 0.00 in 283 W/m2
10:34 40.6 °F 35.8 °F 30.36 in NE 2.0 mph 4.0 mph 83% 0.00 in 271 W/m2
10:40 41.4 °F 36.0 °F 30.36 in ENE 2.0 mph 2.0 mph 81% 0.00 in 408 W/m2
10:46 41.8 °F 35.8 °F 30.36 in SE 2.0 mph 6.0 mph 79% 0.00 in 330 W/m2
10:52 41.8 °F 36.7 °F 30.35 in SE 3.0 mph 5.0 mph 82% 0.00 in 339 W/m2
10:58 42.6 °F 37.2 °F 30.35 in NE 2.0 mph 5.0 mph 81% 0.00 in 338 W/m2
11:04 42.5 °F 35.5 °F 30.35 in East 3.0 mph 6.0 mph 76% 0.00 in 348 W/m2
11:10 42.6 °F 35.9 °F 30.34 in East 4.0 mph 4.0 mph 77% 0.00 in 306 W/m2
11:16 42.8 °F 36.1 °F 30.34 in ENE 4.0 mph 5.0 mph 77% 0.00 in 264 W/m2
11:22 42.8 °F 35.4 °F 30.34 in East 3.0 mph 3.0 mph 75% 0.00 in 279 W/m2
11:28 42.6 °F 34.9 °F 30.34 in NE 4.0 mph 4.0 mph 74% 0.00 in 278 W/m2
11:34 42.7 °F 35.0 °F 30.34 in East 4.0 mph 7.0 mph 74% 0.00 in 262 W/m2
11:40 42.6 °F 34.5 °F 30.34 in NNE 4.0 mph 6.0 mph 73% 0.00 in 271 W/m2
11:46 42.9 °F 35.9 °F 30.34 in ENE 3.0 mph 6.0 mph 76% 0.00 in 243 W/m2
11:52 42.6 °F 33.9 °F 30.34 in NNE 2.0 mph 6.0 mph 71% 0.00 in 220 W/m2
11:58 42.4 °F 33.3 °F 30.34 in ENE 2.0 mph 6.0 mph 70% 0.00 in 230 W/m2
12:04 42.5 °F 33.8 °F 30.34 in NNE 2.0 mph 4.0 mph 71% 0.00 in 250 W/m2
12:10 43.2 °F 34.4 °F 30.34 in ENE 2.0 mph 2.0 mph 71% 0.00 in 260 W/m2
12:16 43.3 °F 33.8 °F 30.34 in ENE 1.0 mph 2.0 mph 69% 0.00 in 253 W/m2
12:22 43.4 °F 34.3 °F 30.33 in SE 2.0 mph 4.0 mph 70% 0.00 in 260 W/m2
12:28 43.5 °F 34.4 °F 30.33 in East 2.0 mph 4.0 mph 70% 0.00 in 237 W/m2
12:34 43.3 °F 34.2 °F 30.33 in East 1.0 mph 3.0 mph 70% 0.00 in 234 W/m2
12:40 43.4 °F 34.3 °F 30.33 in NE 1.0 mph 1.0 mph 70% 0.00 in 236 W/m2
12:46 43.4 °F 34.3 °F 30.33 in SE 1.0 mph 4.0 mph 70% 0.00 in 237 W/m2
12:52 43.5 °F 34.7 °F 30.32 in ESE 2.0 mph 2.0 mph 71% 0.00 in 232 W/m2
12:58 43.8 °F 35.0 °F 30.32 in SSE 1.0 mph 3.0 mph 71% 0.00 in 232 W/m2
13:02 43.9 °F 35.5 °F 30.31 in SSE 2.0 mph 2.0 mph 72% 0.00 in 250 W/m2
13:08 44.2 °F 35.4 °F 30.31 in SSE 1.0 mph 2.0 mph 71% 0.00 in 322 W/m2
13:14 44.4 °F 35.2 °F 30.32 in ENE 1.0 mph 5.0 mph 70% 0.00 in 294 W/m2
13:20 44.7 °F 35.9 °F 30.31 in ENE 2.0 mph 2.0 mph 71% 0.00 in 338 W/m2
13:26 45.2 °F 35.3 °F 30.32 in ENE 2.0 mph 3.0 mph 68% 0.00 in 322 W/m2
13:32 45.1 °F 34.8 °F 30.32 in SSE 2.0 mph 3.0 mph 67% 0.00 in 320 W/m2
13:38 45.1 °F 35.2 °F 30.31 in SE 2.0 mph 3.0 mph 68% 0.00 in 322 W/m2
13:44 45.1 °F 34.4 °F 30.31 in SE 1.0 mph 2.0 mph 66% 0.00 in 329 W/m2
13:50 45.3 °F 34.6 °F 30.31 in SSE 1.0 mph 2.0 mph 66% 0.00 in 290 W/m2
13:56 45.5 °F 35.2 °F 30.30 in SE 2.0 mph 4.0 mph 67% 0.00 in 301 W/m2
14:02 45.5 °F 35.2 °F 30.31 in SE 2.0 mph 3.0 mph 67% 0.00 in 250 W/m2
14:08 45.5 °F 34.0 °F 30.31 in East 2.0 mph 3.0 mph 64% 0.00 in 272 W/m2
14:14 45.7 °F 33.4 °F 30.31 in East 2.0 mph 2.0 mph 62% 0.00 in 246 W/m2
14:20 45.8 °F 33.1 °F 30.31 in SE 2.0 mph 6.0 mph 61% 0.00 in 225 W/m2
14:26 45.9 °F 33.6 °F 30.31 in ESE 2.0 mph 6.0 mph 62% 0.00 in 220 W/m2
14:32 45.7 °F 32.6 °F 30.31 in ENE 2.0 mph 6.0 mph 60% 0.00 in 199 W/m2
14:38 45.6 °F 32.1 °F 30.30 in East 3.0 mph 6.0 mph 59% 0.00 in 172 W/m2
14:44 45.7 °F 33.4 °F 30.30 in East 2.0 mph 3.0 mph 62% 0.00 in 174 W/m2
14:50 45.7 °F 32.2 °F 30.30 in ENE 2.0 mph 2.0 mph 59% 0.00 in 178 W/m2
14:56 45.8 °F 34.7 °F 30.30 in East 2.0 mph 2.0 mph 65% 0.00 in 171 W/m2
15:02 46.1 °F 33.8 °F 30.30 in SE 1.0 mph 3.0 mph 62% 0.00 in 162 W/m2
15:08 46.1 °F 34.2 °F 30.29 in ESE 1.0 mph 3.0 mph 63% 0.00 in 146 W/m2
15:14 46.2 °F 33.9 °F 30.29 in ESE 1.0 mph 2.0 mph 62% 0.00 in 137 W/m2
15:20 46.3 °F 34.4 °F 30.29 in NE 1.0 mph 2.0 mph 63% 0.00 in 132 W/m2
15:26 46.2 °F 33.5 °F 30.28 in ENE 3.0 mph 4.0 mph 61% 0.00 in 128 W/m2
15:32 46.1 °F 33.4 °F 30.28 in ENE 3.0 mph 3.0 mph 61% 0.00 in 132 W/m2
15:38 46.2 °F 33.1 °F 30.28 in East 3.0 mph 3.0 mph 60% 0.00 in 149 W/m2
15:44 46.2 °F 32.7 °F 30.28 in East 3.0 mph 6.0 mph 59% 0.00 in 134 W/m2
15:50 46.3 °F 33.2 °F 30.28 in ENE 3.0 mph 3.0 mph 60% 0.00 in 114 W/m2
15:56 46.3 °F 33.2 °F 30.27 in East 2.0 mph 5.0 mph 60% 0.00 in 104 W/m2
16:02 46.1 °F 33.4 °F 30.27 in East 4.0 mph 4.0 mph 61% 0.00 in 90 W/m2
16:08 46.0 °F 33.7 °F 30.26 in NE 3.0 mph 9.0 mph 62% 0.00 in 77 W/m2
16:14 45.9 °F 33.6 °F 30.27 in NNE 3.0 mph 8.0 mph 62% 0.00 in 81 W/m2
16:20 45.9 °F 33.6 °F 30.26 in ENE 3.0 mph 4.0 mph 62% 0.00 in 88 W/m2
16:26 45.9 °F 33.6 °F 30.26 in ENE 3.0 mph 4.0 mph 62% 0.00 in 81 W/m2
16:32 45.9 °F 33.6 °F 30.26 in NE 3.0 mph 4.0 mph 62% 0.00 in 79 W/m2
16:38 45.9 °F 34.0 °F 30.27 in NE 3.0 mph 4.0 mph 63% 0.00 in 74 W/m2
16:44 45.9 °F 33.6 °F 30.26 in NE 4.0 mph 4.0 mph 62% 0.00 in 67 W/m2
16:50 45.9 °F 34.4 °F 30.25 in ENE 4.0 mph 4.0 mph 64% 0.00 in 49 W/m2
16:56 45.9 °F 34.4 °F 30.25 in East 4.0 mph 4.0 mph 64% 0.00 in 40 W/m2
17:04 45.8 °F 34.7 °F 30.25 in ENE 3.0 mph 4.0 mph 65% 0.00 in 33 W/m2
17:10 45.8 °F 34.7 °F 30.25 in ENE 4.0 mph 4.0 mph 65% 0.00 in 28 W/m2
17:16 45.7 °F 35.0 °F 30.25 in NE 3.0 mph 5.0 mph 66% 0.00 in 26 W/m2
17:22 45.7 °F 35.0 °F 30.24 in ENE 2.0 mph 2.0 mph 66% 0.00 in 19 W/m2
17:28 45.7 °F 35.0 °F 30.25 in ENE 2.0 mph 3.0 mph 66% 0.00 in 12 W/m2
17:34 45.7 °F 34.6 °F 30.24 in NE 3.0 mph 4.0 mph 65% 0.00 in 9 W/m2
17:40 45.6 °F 34.9 °F 30.24 in East 3.0 mph 3.0 mph 66% 0.00 in 5 W/m2
17:46 45.5 °F 34.8 °F 30.24 in NE 2.0 mph 3.0 mph 66% 0.00 in 0 W/m2
17:52 45.4 °F 34.7 °F 30.24 in East 2.0 mph 3.0 mph 66% 0.00 in 0 W/m2
17:58 45.4 °F 35.1 °F 30.24 in ENE 2.0 mph 3.0 mph 67% 0.00 in 0 W/m2
18:04 45.3 °F 35.0 °F 30.23 in East 2.0 mph 7.0 mph 67% 0.00 in 0 W/m2
18:10 45.2 °F 35.3 °F 30.23 in East 2.0 mph 2.0 mph 68% 0.00 in 0 W/m2
18:16 45.2 °F 35.3 °F 30.23 in NE 2.0 mph 3.0 mph 68% 0.00 in 0 W/m2
18:22 45.2 °F 35.3 °F 30.22 in NE 2.0 mph 2.0 mph 68% 0.00 in 0 W/m2
18:28 45.2 °F 34.9 °F 30.22 in ENE 3.0 mph 5.0 mph 67% 0.00 in 0 W/m2
18:34 45.1 °F 34.8 °F 30.22 in SE 2.0 mph 4.0 mph 67% 0.00 in 0 W/m2
18:40 45.0 °F 34.7 °F 30.22 in East 2.0 mph 2.0 mph 67% 0.00 in 0 W/m2
18:46 44.9 °F 34.6 °F 30.22 in ESE 1.0 mph 2.0 mph 67% 0.00 in 0 W/m2
18:52 44.9 °F 34.6 °F 30.22 in East 2.0 mph 5.0 mph 67% 0.00 in 0 W/m2
18:58 44.9 °F 34.2 °F 30.22 in ENE 2.0 mph 5.0 mph 66% 0.00 in 0 W/m2
19:04 44.9 °F 33.8 °F 30.22 in ENE 2.0 mph 2.0 mph 65% 0.00 in 0 W/m2
19:10 44.8 °F 34.1 °F 30.22 in NE 2.0 mph 2.0 mph 66% 0.00 in 0 W/m2
19:16 44.8 °F 33.7 °F 30.22 in ESE 2.0 mph 2.0 mph 65% 0.00 in 0 W/m2
19:22 44.7 °F 33.6 °F 30.22 in East 2.0 mph 5.0 mph 65% 0.00 in 0 W/m2
19:28 44.7 °F 34.0 °F 30.22 in East 3.0 mph 5.0 mph 66% 0.00 in 0 W/m2
19:34 44.5 °F 33.8 °F 30.22 in East 2.0 mph 5.0 mph 66% 0.00 in 0 W/m2
19:40 44.4 °F 34.1 °F 30.22 in ENE 2.0 mph 5.0 mph 67% 0.00 in 0 W/m2
19:46 44.3 °F 34.0 °F 30.21 in ESE 2.0 mph 5.0 mph 67% 0.00 in 0 W/m2
19:52 44.2 °F 34.3 °F 30.21 in East 2.0 mph 3.0 mph 68% 0.00 in 0 W/m2
19:58 44.0 °F 34.1 °F 30.22 in ENE 2.0 mph 4.0 mph 68% 0.00 in 0 W/m2
20:04 44.0 °F 34.1 °F 30.22 in East 2.0 mph 5.0 mph 68% 0.00 in 0 W/m2
20:10 44.1 °F 34.2 °F 30.21 in ENE 3.0 mph 5.0 mph 68% 0.00 in 0 W/m2
20:16 43.9 °F 34.0 °F 30.21 in East 2.0 mph 5.0 mph 68% 0.00 in 0 W/m2
20:22 43.8 °F 34.3 °F 30.20 in East 2.0 mph 3.0 mph 69% 0.00 in 0 W/m2
20:28 43.7 °F 34.2 °F 30.20 in NE 2.0 mph 4.0 mph 69% 0.00 in 0 W/m2
20:34 43.7 °F 34.2 °F 30.20 in East 3.0 mph 6.0 mph 69% 0.00 in 0 W/m2
20:40 43.6 °F 34.1 °F 30.20 in ENE 3.0 mph 5.0 mph 69% 0.00 in 0 W/m2
20:46 43.6 °F 33.7 °F 30.20 in ENE 3.0 mph 5.0 mph 68% 0.00 in 0 W/m2
20:52 43.5 °F 33.6 °F 30.20 in ESE 3.0 mph 5.0 mph 68% 0.00 in 0 W/m2
20:58 43.7 °F 33.5 °F 30.20 in ESE 3.0 mph 5.0 mph 67% 0.00 in 0 W/m2
21:04 43.7 °F 33.1 °F 30.20 in ENE 4.0 mph 8.0 mph 66% 0.00 in 0 W/m2
21:10 43.9 °F 32.9 °F 30.20 in SSE 4.0 mph 4.0 mph 65% 0.00 in 0 W/m2
21:16 43.9 °F 32.1 °F 30.20 in ENE 4.0 mph 8.0 mph 63% 0.00 in 0 W/m2
21:22 44.0 °F 32.2 °F 30.20 in East 4.0 mph 4.0 mph 63% 0.00 in 0 W/m2
21:28 44.0 °F 31.8 °F 30.19 in ENE 4.0 mph 14.0 mph 62% 0.00 in 0 W/m2
21:34 43.8 °F 31.6 °F 30.19 in ENE 4.0 mph 7.0 mph 62% 0.00 in 0 W/m2
21:40 43.8 °F 31.6 °F 30.19 in East 3.0 mph 3.0 mph 62% 0.00 in 0 W/m2
21:46 43.8 °F 31.6 °F 30.18 in ENE 4.0 mph 8.0 mph 62% 0.00 in 0 W/m2
21:52 43.6 °F 31.8 °F 30.17 in SE 3.0 mph 6.0 mph 63% 0.00 in 0 W/m2
21:58 43.6 °F 31.8 °F 30.17 in East 4.0 mph 6.0 mph 63% 0.00 in 0 W/m2
22:04 43.6 °F 31.8 °F 30.17 in ESE 4.0 mph 8.0 mph 63% 0.00 in 0 W/m2
22:10 43.6 °F 31.8 °F 30.17 in East 5.0 mph 5.0 mph 63% 0.00 in 0 W/m2
22:16 43.5 °F 31.7 °F 30.17 in East 4.0 mph 7.0 mph 63% 0.00 in 0 W/m2
22:22 43.4 °F 32.0 °F 30.17 in ENE 4.0 mph 7.0 mph 64% 0.00 in 0 W/m2
22:28 43.3 °F 31.9 °F 30.17 in ESE 3.0 mph 11.0 mph 64% 0.00 in 0 W/m2
22:34 43.3 °F 31.9 °F 30.17 in East 4.0 mph 4.0 mph 64% 0.00 in 0 W/m2
22:40 43.3 °F 31.9 °F 30.17 in ENE 3.0 mph 3.0 mph 64% 0.00 in 0 W/m2
22:46 43.4 °F 32.4 °F 30.17 in ENE 4.0 mph 5.0 mph 65% 0.00 in 0 W/m2
22:52 43.5 °F 32.5 °F 30.17 in ENE 4.0 mph 7.0 mph 65% 0.00 in 0 W/m2
22:58 43.5 °F 32.5 °F 30.17 in East 5.0 mph 8.0 mph 65% 0.00 in 0 W/m2
23:04 43.6 °F 32.6 °F 30.17 in East 4.0 mph 5.0 mph 65% 0.00 in 0 W/m2
23:10 43.5 °F 32.5 °F 30.17 in ESE 3.0 mph 4.0 mph 65% 0.00 in 0 W/m2
23:20 43.7 °F 32.7 °F 30.17 in East 4.0 mph 5.0 mph 65% 0.00 in 0 W/m2
23:26 43.8 °F 32.8 °F 30.16 in SE 4.0 mph 9.0 mph 65% 0.00 in 0 W/m2
23:30 43.9 °F 32.9 °F 30.16 in ENE 5.0 mph 5.0 mph 65% 0.00 in 0 W/m2
23:36 43.9 °F 32.9 °F 30.16 in East 4.0 mph 5.0 mph 65% 0.00 in 0 W/m2
23:42 44.0 °F 33.0 °F 30.16 in East 4.0 mph 6.0 mph 65% 0.00 in 0 W/m2
23:48 44.1 °F 33.1 °F 30.17 in East 4.0 mph 9.0 mph 65% 0.00 in 0 W/m2
23:54 44.2 °F 33.6 °F 30.16 in East 3.0 mph 6.0 mph 66% 0.00 in 0 W/m2
23:56 44.2 °F 33.6 °F 30.16 in East 3.0 mph 6.0 mph 66% 0.00 in 0 W/m2
Country Meadow, Clay, NY, USA
Compliments of Weather Underground - 2 mb